Airport ID:KCXP
Update Time (UTC):12/05/2021 06:17
Wind Speed (Knots):2
Wind Direction (Magnetic):360
Temperature (°C):13
Dew Point (°C):-11
Humidity (%):19
Altimeter (inHg):30.14
Density Altitude (Feet):
Visibility:10+
Clouds (Hundreds of feet):CLR
Present Weather:
METAR:METAR KCXP 120615Z AUTO 00000KT 10SM CLR 12/M11 A3014 RMK AO2

The data displayed is for advisory purposes only and is not to be used for flight planning or operations.